sensor_id;sensor_type;location;lat;lon;timestamp;temperature;humidity
74940;HTU21D;63505;45.226;37.908;2023-08-20T00:01:58;21.45;57.77
74940;HTU21D;63505;45.226;37.908;2023-08-20T00:04:26;21.40;57.80
74940;HTU21D;63505;45.226;37.908;2023-08-20T00:06:53;21.32;57.69
74940;HTU21D;63505;45.226;37.908;2023-08-20T00:09:19;21.28;57.85
74940;HTU21D;63505;45.226;37.908;2023-08-20T00:11:45;21.24;57.99
74940;HTU21D;63505;45.226;37.908;2023-08-20T00:14:16;21.22;58.19
74940;HTU21D;63505;45.226;37.908;2023-08-20T00:16:42;21.20;58.22
74940;HTU21D;63505;45.226;37.908;2023-08-20T00:19:09;21.15;58.35
74940;HTU21D;63505;45.226;37.908;2023-08-20T00:21:35;21.11;58.45
74940;HTU21D;63505;45.226;37.908;2023-08-20T00:24:04;21.06;58.63
74940;HTU21D;63505;45.226;37.908;2023-08-20T00:26:31;21.03;58.69
74940;HTU21D;63505;45.226;37.908;2023-08-20T00:28:56;20.95;58.87
74940;HTU21D;63505;45.226;37.908;2023-08-20T00:31:22;20.90;58.99
74940;HTU21D;63505;45.226;37.908;2023-08-20T00:33:49;20.92;59.00
74940;HTU21D;63505;45.226;37.908;2023-08-20T00:36:15;20.94;58.93
74940;HTU21D;63505;45.226;37.908;2023-08-20T00:38:41;20.93;58.93
74940;HTU21D;63505;45.226;37.908;2023-08-20T00:41:07;20.87;59.08
74940;HTU21D;63505;45.226;37.908;2023-08-20T00:43:33;20.86;59.15
74940;HTU21D;63505;45.226;37.908;2023-08-20T00:45:59;20.85;59.16
74940;HTU21D;63505;45.226;37.908;2023-08-20T00:48:25;20.81;59.19
74940;HTU21D;63505;45.226;37.908;2023-08-20T00:50:52;20.79;59.26
74940;HTU21D;63505;45.226;37.908;2023-08-20T00:53:18;20.80;59.29
74940;HTU21D;63505;45.226;37.908;2023-08-20T00:55:45;20.77;59.37
74940;HTU21D;63505;45.226;37.908;2023-08-20T00:58:11;20.74;59.48
74940;HTU21D;63505;45.226;37.908;2023-08-20T01:00:37;20.74;59.47
74940;HTU21D;63505;45.226;37.908;2023-08-20T01:03:03;20.73;59.52
74940;HTU21D;63505;45.226;37.908;2023-08-20T01:05:32;20.71;59.61
74940;HTU21D;63505;45.226;37.908;2023-08-20T01:08:25;20.66;59.88
74940;HTU21D;63505;45.226;37.908;2023-08-20T01:11:01;20.61;59.80
74940;HTU21D;63505;45.226;37.908;2023-08-20T01:13:29;20.56;59.98
74940;HTU21D;63505;45.226;37.908;2023-08-20T01:15:55;20.53;60.10
74940;HTU21D;63505;45.226;37.908;2023-08-20T01:18:21;20.49;60.23
74940;HTU21D;63505;45.226;37.908;2023-08-20T01:20:55;20.46;60.41
74940;HTU21D;63505;45.226;37.908;2023-08-20T01:26:31;20.42;60.53
74940;HTU21D;63505;45.226;37.908;2023-08-20T01:29:01;20.39;60.35
74940;HTU21D;63505;45.226;37.908;2023-08-20T01:31:28;20.36;60.50
74940;HTU21D;63505;45.226;37.908;2023-08-20T01:33:54;20.33;60.60
74940;HTU21D;63505;45.226;37.908;2023-08-20T01:36:21;20.32;60.75
74940;HTU21D;63505;45.226;37.908;2023-08-20T01:38:47;20.30;60.83
74940;HTU21D;63505;45.226;37.908;2023-08-20T01:41:13;20.26;60.96
74940;HTU21D;63505;45.226;37.908;2023-08-20T01:43:39;20.19;61.11
74940;HTU21D;63505;45.226;37.908;2023-08-20T01:46:06;20.16;61.22
74940;HTU21D;63505;45.226;37.908;2023-08-20T01:48:32;20.16;61.29
74940;HTU21D;63505;45.226;37.908;2023-08-20T01:50:58;20.16;61.34
74940;HTU21D;63505;45.226;37.908;2023-08-20T01:53:24;20.12;61.44
74940;HTU21D;63505;45.226;37.908;2023-08-20T01:55:50;20.07;61.60
74940;HTU21D;63505;45.226;37.908;2023-08-20T01:58:16;20.04;61.63
74940;HTU21D;63505;45.226;37.908;2023-08-20T02:00:42;19.97;61.87
74940;HTU21D;63505;45.226;37.908;2023-08-20T02:03:07;19.91;61.99
74940;HTU21D;63505;45.226;37.908;2023-08-20T02:05:33;19.86;62.15
74940;HTU21D;63505;45.226;37.908;2023-08-20T02:07:59;19.87;62.21
74940;HTU21D;63505;45.226;37.908;2023-08-20T02:10:25;19.86;62.21
74940;HTU21D;63505;45.226;37.908;2023-08-20T02:12:51;19.85;62.31
74940;HTU21D;63505;45.226;37.908;2023-08-20T02:15:17;19.77;62.48
74940;HTU21D;63505;45.226;37.908;2023-08-20T02:17:43;19.74;62.62
74940;HTU21D;63505;45.226;37.908;2023-08-20T02:20:09;19.72;62.68
74940;HTU21D;63505;45.226;37.908;2023-08-20T02:22:37;19.72;62.70
74940;HTU21D;63505;45.226;37.908;2023-08-20T02:25:03;19.74;62.69
74940;HTU21D;63505;45.226;37.908;2023-08-20T02:27:29;19.75;62.71
74940;HTU21D;63505;45.226;37.908;2023-08-20T02:29:56;19.74;62.79
74940;HTU21D;63505;45.226;37.908;2023-08-20T02:32:21;19.74;62.87
74940;HTU21D;63505;45.226;37.908;2023-08-20T02:34:51;19.72;62.94
74940;HTU21D;63505;45.226;37.908;2023-08-20T02:37:17;19.74;62.92
74940;HTU21D;63505;45.226;37.908;2023-08-20T02:39:44;19.75;62.93
74940;HTU21D;63505;45.226;37.908;2023-08-20T02:42:10;19.74;63.01
74940;HTU21D;63505;45.226;37.908;2023-08-20T02:44:35;19.75;63.03
74940;HTU21D;63505;45.226;37.908;2023-08-20T02:47:01;19.71;63.13
74940;HTU21D;63505;45.226;37.908;2023-08-20T02:49:28;19.65;63.33
74940;HTU21D;63505;45.226;37.908;2023-08-20T02:51:54;19.63;63.44
74940;HTU21D;63505;45.226;37.908;2023-08-20T02:54:20;19.66;63.47
74940;HTU21D;63505;45.226;37.908;2023-08-20T02:56:46;19.69;63.44
74940;HTU21D;63505;45.226;37.908;2023-08-20T02:59:11;19.72;63.40
74940;HTU21D;63505;45.226;37.908;2023-08-20T03:01:37;19.73;63.46
74940;HTU21D;63505;45.226;37.908;2023-08-20T03:04:04;19.76;63.48
74940;HTU21D;63505;45.226;37.908;2023-08-20T03:06:30;19.77;63.53
74940;HTU21D;63505;45.226;37.908;2023-08-20T03:08:55;19.83;63.53
74940;HTU21D;63505;45.226;37.908;2023-08-20T03:11:21;19.86;63.54
74940;HTU21D;63505;45.226;37.908;2023-08-20T03:13:47;19.92;63.52
74940;HTU21D;63505;45.226;37.908;2023-08-20T03:16:13;20.01;63.35
74940;HTU21D;63505;45.226;37.908;2023-08-20T03:18:39;20.10;63.30
74940;HTU21D;63505;45.226;37.908;2023-08-20T03:21:05;20.16;63.31
74940;HTU21D;63505;45.226;37.908;2023-08-20T03:23:30;20.25;63.33
74940;HTU21D;63505;45.226;37.908;2023-08-20T03:25:59;20.35;63.38
74940;HTU21D;63505;45.226;37.908;2023-08-20T03:28:25;20.45;63.31
74940;HTU21D;63505;45.226;37.908;2023-08-20T03:30:53;20.57;63.28
74940;HTU21D;63505;45.226;37.908;2023-08-20T03:33:22;20.69;63.17
74940;HTU21D;63505;45.226;37.908;2023-08-20T03:35:48;20.79;63.03
74940;HTU21D;63505;45.226;37.908;2023-08-20T03:38:14;20.91;62.91
74940;HTU21D;63505;45.226;37.908;2023-08-20T03:40:40;21.02;62.74
74940;HTU21D;63505;45.226;37.908;2023-08-20T03:43:09;21.11;62.60
74940;HTU21D;63505;45.226;37.908;2023-08-20T03:45:35;21.23;62.40
74940;HTU21D;63505;45.226;37.908;2023-08-20T03:48:01;21.33;62.31
74940;HTU21D;63505;45.226;37.908;2023-08-20T03:50:28;21.46;62.12
74940;HTU21D;63505;45.226;37.908;2023-08-20T03:52:54;21.58;61.86
74940;HTU21D;63505;45.226;37.908;2023-08-20T03:55:20;21.70;61.60
74940;HTU21D;63505;45.226;37.908;2023-08-20T03:57:46;21.85;61.27
74940;HTU21D;63505;45.226;37.908;2023-08-20T04:00:12;21.99;60.99
74940;HTU21D;63505;45.226;37.908;2023-08-20T04:02:40;22.13;60.74
74940;HTU21D;63505;45.226;37.908;2023-08-20T04:05:07;22.29;60.56
74940;HTU21D;63505;45.226;37.908;2023-08-20T04:07:32;22.47;60.27
74940;HTU21D;63505;45.226;37.908;2023-08-20T04:09:59;22.63;59.89
74940;HTU21D;63505;45.226;37.908;2023-08-20T04:12:24;22.81;59.63
74940;HTU21D;63505;45.226;37.908;2023-08-20T04:14:50;22.95;59.41
74940;HTU21D;63505;45.226;37.908;2023-08-20T04:17:16;23.10;59.25
74940;HTU21D;63505;45.226;37.908;2023-08-20T04:19:42;23.24;59.03
74940;HTU21D;63505;45.226;37.908;2023-08-20T04:22:08;23.40;58.79
74940;HTU21D;63505;45.226;37.908;2023-08-20T04:24:34;23.57;58.43
74940;HTU21D;63505;45.226;37.908;2023-08-20T04:26:59;23.69;58.06
74940;HTU21D;63505;45.226;37.908;2023-08-20T04:29:27;23.84;57.56
74940;HTU21D;63505;45.226;37.908;2023-08-20T04:31:53;23.96;57.14
74940;HTU21D;63505;45.226;37.908;2023-08-20T04:34:19;24.11;56.83
74940;HTU21D;63505;45.226;37.908;2023-08-20T04:36:50;24.25;56.48
74940;HTU21D;63505;45.226;37.908;2023-08-20T04:39:18;24.41;56.18
74940;HTU21D;63505;45.226;37.908;2023-08-20T04:41:48;24.59;55.80
74940;HTU21D;63505;45.226;37.908;2023-08-20T04:44:16;24.78;55.46
74940;HTU21D;63505;45.226;37.908;2023-08-20T04:46:43;24.93;55.25
74940;HTU21D;63505;45.226;37.908;2023-08-20T04:49:09;25.13;54.77
74940;HTU21D;63505;45.226;37.908;2023-08-20T04:51:37;25.24;54.34
74940;HTU21D;63505;45.226;37.908;2023-08-20T04:54:03;25.37;53.86
74940;HTU21D;63505;45.226;37.908;2023-08-20T04:56:29;25.50;53.50
74940;HTU21D;63505;45.226;37.908;2023-08-20T04:58:55;25.62;52.97
74940;HTU21D;63505;45.226;37.908;2023-08-20T05:01:44;25.75;52.69
74940;HTU21D;63505;45.226;37.908;2023-08-20T05:04:11;25.93;52.40
74940;HTU21D;63505;45.226;37.908;2023-08-20T05:06:37;26.09;51.86
74940;HTU21D;63505;45.226;37.908;2023-08-20T05:09:03;26.21;50.92
74940;HTU21D;63505;45.226;37.908;2023-08-20T05:11:30;26.37;50.24
74940;HTU21D;63505;45.226;37.908;2023-08-20T05:13:58;26.50;49.81
74940;HTU21D;63505;45.226;37.908;2023-08-20T05:16:24;26.62;49.02
74940;HTU21D;63505;45.226;37.908;2023-08-20T05:18:50;26.76;48.64
74940;HTU21D;63505;45.226;37.908;2023-08-20T05:21:16;26.86;47.55
74940;HTU21D;63505;45.226;37.908;2023-08-20T05:23:42;26.95;47.17
74940;HTU21D;63505;45.226;37.908;2023-08-20T05:26:08;27.04;47.29
74940;HTU21D;63505;45.226;37.908;2023-08-20T05:28:34;27.16;47.44
74940;HTU21D;63505;45.226;37.908;2023-08-20T05:31:00;27.34;47.07
74940;HTU21D;63505;45.226;37.908;2023-08-20T05:33:26;27.42;46.49
74940;HTU21D;63505;45.226;37.908;2023-08-20T05:35:53;27.53;46.30
74940;HTU21D;63505;45.226;37.908;2023-08-20T05:38:20;27.63;45.73
74940;HTU21D;63505;45.226;37.908;2023-08-20T05:40:48;27.72;45.28
74940;HTU21D;63505;45.226;37.908;2023-08-20T05:43:14;27.74;44.84
74940;HTU21D;63505;45.226;37.908;2023-08-20T05:45:40;27.86;44.86
74940;HTU21D;63505;45.226;37.908;2023-08-20T05:48:08;27.95;43.86
74940;HTU21D;63505;45.226;37.908;2023-08-20T05:50:34;28.03;43.79
74940;HTU21D;63505;45.226;37.908;2023-08-20T05:53:00;28.19;43.83
74940;HTU21D;63505;45.226;37.908;2023-08-20T05:55:27;28.33;43.04
74940;HTU21D;63505;45.226;37.908;2023-08-20T05:57:54;28.45;42.52
74940;HTU21D;63505;45.226;37.908;2023-08-20T06:00:20;28.55;41.74
74940;HTU21D;63505;45.226;37.908;2023-08-20T06:02:46;28.61;41.78
74940;HTU21D;63505;45.226;37.908;2023-08-20T06:05:12;28.76;42.32
74940;HTU21D;63505;45.226;37.908;2023-08-20T06:07:39;28.98;42.10
74940;HTU21D;63505;45.226;37.908;2023-08-20T06:10:06;29.19;41.77
74940;HTU21D;63505;45.226;37.908;2023-08-20T06:12:33;29.30;41.47
74940;HTU21D;63505;45.226;37.908;2023-08-20T06:14:59;29.42;41.01
74940;HTU21D;63505;45.226;37.908;2023-08-20T06:17:25;29.48;40.56
74940;HTU21D;63505;45.226;37.908;2023-08-20T06:19:51;29.60;40.73
74940;HTU21D;63505;45.226;37.908;2023-08-20T06:22:17;29.72;40.71
74940;HTU21D;63505;45.226;37.908;2023-08-20T06:24:43;29.90;40.63
74940;HTU21D;63505;45.226;37.908;2023-08-20T06:27:08;30.09;40.08
74940;HTU21D;63505;45.226;37.908;2023-08-20T06:29:34;30.19;39.52
74940;HTU21D;63505;45.226;37.908;2023-08-20T06:32:00;30.27;39.51
74940;HTU21D;63505;45.226;37.908;2023-08-20T06:34:26;30.47;39.70
74940;HTU21D;63505;45.226;37.908;2023-08-20T06:36:52;30.64;38.88
74940;HTU21D;63505;45.226;37.908;2023-08-20T06:39:18;30.72;38.35
74940;HTU21D;63505;45.226;37.908;2023-08-20T06:41:45;30.82;38.59
74940;HTU21D;63505;45.226;37.908;2023-08-20T06:44:19;30.96;38.29
74940;HTU21D;63505;45.226;37.908;2023-08-20T06:46:45;31.07;38.23
74940;HTU21D;63505;45.226;37.908;2023-08-20T06:49:11;31.24;37.66
74940;HTU21D;63505;45.226;37.908;2023-08-20T06:51:37;31.41;37.47
74940;HTU21D;63505;45.226;37.908;2023-08-20T06:54:03;31.56;37.56
74940;HTU21D;63505;45.226;37.908;2023-08-20T06:56:32;31.71;37.95
74940;HTU21D;63505;45.226;37.908;2023-08-20T06:58:58;32.02;37.50
74940;HTU21D;63505;45.226;37.908;2023-08-20T07:01:24;32.24;36.63
74940;HTU21D;63505;45.226;37.908;2023-08-20T07:03:49;32.24;36.21
74940;HTU21D;63505;45.226;37.908;2023-08-20T07:06:15;32.31;36.10
74940;HTU21D;63505;45.226;37.908;2023-08-20T07:08:44;32.46;36.08
74940;HTU21D;63505;45.226;37.908;2023-08-20T07:11:10;32.59;36.04
74940;HTU21D;63505;45.226;37.908;2023-08-20T07:13:36;32.83;35.92
74940;HTU21D;63505;45.226;37.908;2023-08-20T07:16:02;33.03;35.32
74940;HTU21D;63505;45.226;37.908;2023-08-20T07:18:28;33.02;34.58
74940;HTU21D;63505;45.226;37.908;2023-08-20T07:20:55;33.21;34.66
74940;HTU21D;63505;45.226;37.908;2023-08-20T07:23:22;33.36;34.16
74940;HTU21D;63505;45.226;37.908;2023-08-20T07:25:48;33.46;33.37
74940;HTU21D;63505;45.226;37.908;2023-08-20T07:28:17;33.60;33.96
74940;HTU21D;63505;45.226;37.908;2023-08-20T07:30:52;33.77;33.83
74940;HTU21D;63505;45.226;37.908;2023-08-20T07:33:18;33.89;34.04
74940;HTU21D;63505;45.226;37.908;2023-08-20T07:35:44;34.17;33.64
74940;HTU21D;63505;45.226;37.908;2023-08-20T07:38:09;34.30;33.09
74940;HTU21D;63505;45.226;37.908;2023-08-20T07:40:36;34.35;33.29
74940;HTU21D;63505;45.226;37.908;2023-08-20T07:43:01;34.48;33.48
74940;HTU21D;63505;45.226;37.908;2023-08-20T07:45:27;34.73;33.36
74940;HTU21D;63505;45.226;37.908;2023-08-20T07:47:54;34.94;32.54
74940;HTU21D;63505;45.226;37.908;2023-08-20T07:50:19;35.06;32.04
74940;HTU21D;63505;45.226;37.908;2023-08-20T07:52:45;35.18;32.05
74940;HTU21D;63505;45.226;37.908;2023-08-20T07:55:11;35.23;30.93
74940;HTU21D;63505;45.226;37.908;2023-08-20T07:57:37;35.33;30.50
74940;HTU21D;63505;45.226;37.908;2023-08-20T08:00:03;35.36;30.19
74940;HTU21D;63505;45.226;37.908;2023-08-20T08:02:37;35.48;29.66
74940;HTU21D;63505;45.226;37.908;2023-08-20T08:05:03;35.55;29.42
74940;HTU21D;63505;45.226;37.908;2023-08-20T08:07:29;35.79;29.27
74940;HTU21D;63505;45.226;37.908;2023-08-20T08:09:54;35.95;28.63
74940;HTU21D;63505;45.226;37.908;2023-08-20T08:12:20;36.02;28.18
74940;HTU21D;63505;45.226;37.908;2023-08-20T08:14:47;36.10;27.83
74940;HTU21D;63505;45.226;37.908;2023-08-20T08:17:13;36.16;27.31
74940;HTU21D;63505;45.226;37.908;2023-08-20T08:19:39;36.30;27.37
74940;HTU21D;63505;45.226;37.908;2023-08-20T08:22:05;36.39;26.64
74940;HTU21D;63505;45.226;37.908;2023-08-20T08:24:31;36.47;26.30
74940;HTU21D;63505;45.226;37.908;2023-08-20T08:26:56;36.55;26.08
74940;HTU21D;63505;45.226;37.908;2023-08-20T08:29:22;36.58;25.46
74940;HTU21D;63505;45.226;37.908;2023-08-20T08:31:48;36.69;25.05
74940;HTU21D;63505;45.226;37.908;2023-08-20T08:34:14;36.72;24.86
74940;HTU21D;63505;45.226;37.908;2023-08-20T08:36:40;36.77;24.93
74940;HTU21D;63505;45.226;37.908;2023-08-20T08:39:06;36.85;24.61
74940;HTU21D;63505;45.226;37.908;2023-08-20T08:41:35;36.93;25.07
74940;HTU21D;63505;45.226;37.908;2023-08-20T08:44:06;37.08;25.39
74940;HTU21D;63505;45.226;37.908;2023-08-20T08:46:35;37.25;24.76
74940;HTU21D;63505;45.226;37.908;2023-08-20T08:49:02;37.22;24.45
74940;HTU21D;63505;45.226;37.908;2023-08-20T08:51:30;37.20;23.98
74940;HTU21D;63505;45.226;37.908;2023-08-20T08:53:56;37.23;23.88
74940;HTU21D;63505;45.226;37.908;2023-08-20T08:56:22;37.28;24.01
74940;HTU21D;63505;45.226;37.908;2023-08-20T08:58:48;37.40;23.49
74940;HTU21D;63505;45.226;37.908;2023-08-20T09:01:14;37.44;23.06
74940;HTU21D;63505;45.226;37.908;2023-08-20T09:03:40;37.41;22.20
74940;HTU21D;63505;45.226;37.908;2023-08-20T09:06:09;37.41;21.86
74940;HTU21D;63505;45.226;37.908;2023-08-20T09:08:35;37.32;21.62
74940;HTU21D;63505;45.226;37.908;2023-08-20T09:11:02;37.29;22.11
74940;HTU21D;63505;45.226;37.908;2023-08-20T09:13:42;37.25;22.06
74940;HTU21D;63505;45.226;37.908;2023-08-20T09:16:10;37.25;21.78
74940;HTU21D;63505;45.226;37.908;2023-08-20T09:18:41;37.21;21.84
74940;HTU21D;63505;45.226;37.908;2023-08-20T09:21:12;37.25;22.30
74940;HTU21D;63505;45.226;37.908;2023-08-20T09:23:39;37.32;22.39
74940;HTU21D;63505;45.226;37.908;2023-08-20T09:26:07;37.47;21.66
74940;HTU21D;63505;45.226;37.908;2023-08-20T09:28:43;37.50;20.53
74940;HTU21D;63505;45.226;37.908;2023-08-20T09:31:09;37.54;20.90
74940;HTU21D;63505;45.226;37.908;2023-08-20T09:33:35;37.58;21.31
74940;HTU21D;63505;45.226;37.908;2023-08-20T09:36:05;37.51;21.53
74940;HTU21D;63505;45.226;37.908;2023-08-20T09:38:36;37.44;20.76
74940;HTU21D;63505;45.226;37.908;2023-08-20T09:41:06;37.48;20.12
74940;HTU21D;63505;45.226;37.908;2023-08-20T09:43:37;37.42;19.89
74940;HTU21D;63505;45.226;37.908;2023-08-20T09:46:05;37.41;20.70
74940;HTU21D;63505;45.226;37.908;2023-08-20T09:48:35;37.52;21.15
74940;HTU21D;63505;45.226;37.908;2023-08-20T09:51:04;37.63;20.32
74940;HTU21D;63505;45.226;37.908;2023-08-20T09:53:38;37.61;19.41
74940;HTU21D;63505;45.226;37.908;2023-08-20T09:56:24;37.62;19.72
74940;HTU21D;63505;45.226;37.908;2023-08-20T09:58:53;37.61;20.03
74940;HTU21D;63505;45.226;37.908;2023-08-20T10:01:20;37.63;20.31
74940;HTU21D;63505;45.226;37.908;2023-08-20T10:03:46;37.70;20.63
74940;HTU21D;63505;45.226;37.908;2023-08-20T10:06:12;37.76;21.02
74940;HTU21D;63505;45.226;37.908;2023-08-20T10:08:38;37.73;20.04
74940;HTU21D;63505;45.226;37.908;2023-08-20T10:11:04;37.77;20.65
74940;HTU21D;63505;45.226;37.908;2023-08-20T10:13:30;37.75;20.40
74940;HTU21D;63505;45.226;37.908;2023-08-20T10:15:56;37.81;20.73
74940;HTU21D;63505;45.226;37.908;2023-08-20T10:18:22;37.90;20.87
74940;HTU21D;63505;45.226;37.908;2023-08-20T10:20:52;37.94;20.75
74940;HTU21D;63505;45.226;37.908;2023-08-20T10:23:21;37.95;19.70
74940;HTU21D;63505;45.226;37.908;2023-08-20T10:25:54;37.94;19.83
74940;HTU21D;63505;45.226;37.908;2023-08-20T10:28:25;37.99;19.98
74940;HTU21D;63505;45.226;37.908;2023-08-20T10:31:10;38.01;18.98
74940;HTU21D;63505;45.226;37.908;2023-08-20T10:33:48;37.88;19.64
74940;HTU21D;63505;45.226;37.908;2023-08-20T10:36:17;37.87;20.28
74940;HTU21D;63505;45.226;37.908;2023-08-20T10:38:47;37.86;19.51
74940;HTU21D;63505;45.226;37.908;2023-08-20T10:41:13;37.88;20.11
74940;HTU21D;63505;45.226;37.908;2023-08-20T10:43:49;37.93;19.53
74940;HTU21D;63505;45.226;37.908;2023-08-20T10:46:18;37.92;19.68
74940;HTU21D;63505;45.226;37.908;2023-08-20T10:48:51;38.01;20.33
74940;HTU21D;63505;45.226;37.908;2023-08-20T10:51:37;38.09;19.84
74940;HTU21D;63505;45.226;37.908;2023-08-20T10:54:07;38.17;19.81
74940;HTU21D;63505;45.226;37.908;2023-08-20T10:56:48;38.21;19.51
74940;HTU21D;63505;45.226;37.908;2023-08-20T10:59:25;38.23;18.98
74940;HTU21D;63505;45.226;37.908;2023-08-20T11:01:53;38.21;18.24
74940;HTU21D;63505;45.226;37.908;2023-08-20T11:04:22;38.14;17.97
74940;HTU21D;63505;45.226;37.908;2023-08-20T11:06:55;38.17;18.03
74940;HTU21D;63505;45.226;37.908;2023-08-20T11:09:26;38.15;17.70
74940;HTU21D;63505;45.226;37.908;2023-08-20T11:11:52;38.15;17.74
74940;HTU21D;63505;45.226;37.908;2023-08-20T11:14:20;38.12;18.29
74940;HTU21D;63505;45.226;37.908;2023-08-20T11:16:47;38.16;18.54
74940;HTU21D;63505;45.226;37.908;2023-08-20T11:19:14;38.11;19.04
74940;HTU21D;63505;45.226;37.908;2023-08-20T11:21:42;38.09;19.09
74940;HTU21D;63505;45.226;37.908;2023-08-20T11:24:09;38.15;17.48
74940;HTU21D;63505;45.226;37.908;2023-08-20T11:26:38;38.06;16.66
74940;HTU21D;63505;45.226;37.908;2023-08-20T11:29:12;37.99;16.94
74940;HTU21D;63505;45.226;37.908;2023-08-20T11:31:38;37.90;17.57
74940;HTU21D;63505;45.226;37.908;2023-08-20T11:34:05;37.82;17.94
74940;HTU21D;63505;45.226;37.908;2023-08-20T11:36:31;37.87;18.63
74940;HTU21D;63505;45.226;37.908;2023-08-20T11:38:57;37.93;17.88
74940;HTU21D;63505;45.226;37.908;2023-08-20T11:41:24;37.93;17.95
74940;HTU21D;63505;45.226;37.908;2023-08-20T11:43:51;37.91;18.38
74940;HTU21D;63505;45.226;37.908;2023-08-20T11:46:19;37.89;18.74
74940;HTU21D;63505;45.226;37.908;2023-08-20T11:49:07;37.85;18.84
74940;HTU21D;63505;45.226;37.908;2023-08-20T11:51:45;37.84;19.10
74940;HTU21D;63505;45.226;37.908;2023-08-20T11:54:16;37.95;18.86
74940;HTU21D;63505;45.226;37.908;2023-08-20T11:56:49;38.03;18.34
74940;HTU21D;63505;45.226;37.908;2023-08-20T11:59:17;38.00;17.87
74940;HTU21D;63505;45.226;37.908;2023-08-20T12:01:47;38.00;17.66
74940;HTU21D;63505;45.226;37.908;2023-08-20T12:04:15;37.94;17.66
74940;HTU21D;63505;45.226;37.908;2023-08-20T12:06:41;37.99;18.25
74940;HTU21D;63505;45.226;37.908;2023-08-20T12:09:21;38.08;18.31
74940;HTU21D;63505;45.226;37.908;2023-08-20T12:11:48;38.11;18.41
74940;HTU21D;63505;45.226;37.908;2023-08-20T12:14:14;38.16;18.29
74940;HTU21D;63505;45.226;37.908;2023-08-20T12:16:40;38.14;17.95
74940;HTU21D;63505;45.226;37.908;2023-08-20T12:19:06;38.08;18.47
74940;HTU21D;63505;45.226;37.908;2023-08-20T12:21:32;37.99;19.25
74940;HTU21D;63505;45.226;37.908;2023-08-20T12:23:58;37.86;18.17
74940;HTU21D;63505;45.226;37.908;2023-08-20T12:26:24;37.71;17.65
74940;HTU21D;63505;45.226;37.908;2023-08-20T12:28:49;37.67;18.31
74940;HTU21D;63505;45.226;37.908;2023-08-20T12:31:15;37.70;18.38
74940;HTU21D;63505;45.226;37.908;2023-08-20T12:33:41;37.73;18.83
74940;HTU21D;63505;45.226;37.908;2023-08-20T12:36:07;37.84;18.75
74940;HTU21D;63505;45.226;37.908;2023-08-20T12:38:33;37.88;18.45
74940;HTU21D;63505;45.226;37.908;2023-08-20T12:41:00;37.85;18.15
74940;HTU21D;63505;45.226;37.908;2023-08-20T12:43:27;37.76;17.82
74940;HTU21D;63505;45.226;37.908;2023-08-20T12:45:52;37.66;17.83
74940;HTU21D;63505;45.226;37.908;2023-08-20T12:48:18;37.62;18.81
74940;HTU21D;63505;45.226;37.908;2023-08-20T12:50:45;37.64;18.71
74940;HTU21D;63505;45.226;37.908;2023-08-20T12:53:10;37.64;18.86
74940;HTU21D;63505;45.226;37.908;2023-08-20T12:55:38;37.65;19.01
74940;HTU21D;63505;45.226;37.908;2023-08-20T12:58:04;37.65;18.29
74940;HTU21D;63505;45.226;37.908;2023-08-20T13:00:30;37.61;18.44
74940;HTU21D;63505;45.226;37.908;2023-08-20T13:02:56;37.55;18.07
74940;HTU21D;63505;45.226;37.908;2023-08-20T13:05:24;37.44;17.72
74940;HTU21D;63505;45.226;37.908;2023-08-20T13:07:50;37.40;18.05
74940;HTU21D;63505;45.226;37.908;2023-08-20T13:10:17;37.35;18.00
74940;HTU21D;63505;45.226;37.908;2023-08-20T13:12:50;37.30;18.19
74940;HTU21D;63505;45.226;37.908;2023-08-20T13:15:17;37.26;18.22
74940;HTU21D;63505;45.226;37.908;2023-08-20T13:17:45;37.20;18.31
74940;HTU21D;63505;45.226;37.908;2023-08-20T13:20:12;37.17;18.56
74940;HTU21D;63505;45.226;37.908;2023-08-20T13:22:38;37.20;18.54
74940;HTU21D;63505;45.226;37.908;2023-08-20T13:25:04;37.19;18.47
74940;HTU21D;63505;45.226;37.908;2023-08-20T13:27:31;37.19;18.58
74940;HTU21D;63505;45.226;37.908;2023-08-20T13:29:57;37.16;18.22
74940;HTU21D;63505;45.226;37.908;2023-08-20T13:32:23;37.10;17.89
74940;HTU21D;63505;45.226;37.908;2023-08-20T13:34:50;37.06;18.06
74940;HTU21D;63505;45.226;37.908;2023-08-20T13:37:16;37.03;18.12
74940;HTU21D;63505;45.226;37.908;2023-08-20T13:39:43;37.01;18.55
74940;HTU21D;63505;45.226;37.908;2023-08-20T13:42:09;37.01;18.34
74940;HTU21D;63505;45.226;37.908;2023-08-20T13:44:35;36.99;18.24
74940;HTU21D;63505;45.226;37.908;2023-08-20T13:47:01;36.98;18.46
74940;HTU21D;63505;45.226;37.908;2023-08-20T13:49:27;36.92;18.62
74940;HTU21D;63505;45.226;37.908;2023-08-20T13:51:53;36.89;18.64
74940;HTU21D;63505;45.226;37.908;2023-08-20T13:54:18;36.85;18.71
74940;HTU21D;63505;45.226;37.908;2023-08-20T13:56:45;36.81;19.07
74940;HTU21D;63505;45.226;37.908;2023-08-20T13:59:11;36.78;19.38
74940;HTU21D;63505;45.226;37.908;2023-08-20T14:01:36;36.71;19.54
74940;HTU21D;63505;45.226;37.908;2023-08-20T14:04:02;36.64;19.86
74940;HTU21D;63505;45.226;37.908;2023-08-20T14:06:29;36.61;20.15
74940;HTU21D;63505;45.226;37.908;2023-08-20T14:08:55;36.55;20.42
74940;HTU21D;63505;45.226;37.908;2023-08-20T14:11:21;36.52;20.70
74940;HTU21D;63505;45.226;37.908;2023-08-20T14:13:48;36.48;20.89
74940;HTU21D;63505;45.226;37.908;2023-08-20T14:16:14;36.43;20.79
74940;HTU21D;63505;45.226;37.908;2023-08-20T14:18:40;36.40;21.01
74940;HTU21D;63505;45.226;37.908;2023-08-20T14:21:06;36.31;20.52
74940;HTU21D;63505;45.226;37.908;2023-08-20T14:23:32;36.22;20.15
74940;HTU21D;63505;45.226;37.908;2023-08-20T14:25:58;36.12;20.24
74940;HTU21D;63505;45.226;37.908;2023-08-20T14:28:24;36.03;20.08
74940;HTU21D;63505;45.226;37.908;2023-08-20T14:30:50;35.99;20.36
74940;HTU21D;63505;45.226;37.908;2023-08-20T14:33:20;35.86;20.63
74940;HTU21D;63505;45.226;37.908;2023-08-20T14:35:47;35.77;20.76
74940;HTU21D;63505;45.226;37.908;2023-08-20T14:38:12;35.68;20.99
74940;HTU21D;63505;45.226;37.908;2023-08-20T14:40:41;35.57;21.34
74940;HTU21D;63505;45.226;37.908;2023-08-20T14:43:08;35.48;21.44
74940;HTU21D;63505;45.226;37.908;2023-08-20T14:45:34;35.39;21.46
74940;HTU21D;63505;45.226;37.908;2023-08-20T14:48:00;35.31;21.42
74940;HTU21D;63505;45.226;37.908;2023-08-20T14:50:28;35.26;21.54
74940;HTU21D;63505;45.226;37.908;2023-08-20T14:52:54;35.16;21.77
74940;HTU21D;63505;45.226;37.908;2023-08-20T14:55:19;35.09;22.04
74940;HTU21D;63505;45.226;37.908;2023-08-20T14:57:46;34.98;22.25
74940;HTU21D;63505;45.226;37.908;2023-08-20T15:00:13;34.91;22.47
74940;HTU21D;63505;45.226;37.908;2023-08-20T15:02:43;34.82;22.71
74940;HTU21D;63505;45.226;37.908;2023-08-20T15:05:10;34.71;22.97
74940;HTU21D;63505;45.226;37.908;2023-08-20T15:07:37;34.62;23.10